Time;durP1;ratioP1;P1;durP2;ratioP2;P2;SDS_P1;SDS_P2;PMS_P1;PMS_P2;Temp;Humidity;BMP_temperature;BMP_pressure;BME280_temperature;BME280_humidity;BME280_pressure;Samples;Min_cycle;Max_cycle;Signal;HPM_P1;HPM_P2
2023/05/05 00:01:56;;;;;;;7.47;3.63;;;;;;;;;;12983156;19;20034;-66
2023/05/05 00:06:14;;;;;;;9.68;4.00;;;;;;;;;;12981622;19;20018;-66
2023/05/05 00:10:32;;;;;;;8.10;3.50;;;;;;;;;;12982084;19;20813;-67
2023/05/05 00:14:50;;;;;;;6.65;3.65;;;;;;;;;;12981883;19;20009;-65
2023/05/05 00:19:07;;;;;;;7.13;3.72;;;;;;;;;;12980283;19;20018;-65
2023/05/05 00:23:25;;;;;;;5.45;2.95;;;;;;;;;;12981072;19;20034;-66
2023/05/05 00:27:43;;;;;;;5.30;3.30;;;;;;;;;;12981517;19;20010;-65
2023/05/05 00:32:01;;;;;;;7.03;3.03;;;;;;;;;;12981893;19;20014;-65
2023/05/05 00:36:18;;;;;;;6.75;3.75;;;;;;;;;;12981219;19;20018;-66
2023/05/05 00:40:37;;;;;;;7.40;3.83;;;;;;;;;;12981410;19;20052;-67
2023/05/05 00:44:54;;;;;;;7.10;3.63;;;;;;;;;;12979950;19;20010;-68
2023/05/05 00:49:12;;;;;;;7.20;4.13;;;;;;;;;;12980211;19;20010;-66
2023/05/05 00:53:30;;;;;;;5.38;3.38;;;;;;;;;;12980382;19;20018;-66
2023/05/05 00:57:48;;;;;;;7.05;3.20;;;;;;;;;;12980013;19;20014;-66
2023/05/05 01:02:06;;;;;;;6.00;3.25;;;;;;;;;;12978138;19;20474;-66
2023/05/05 01:07:11;;;;;;;6.97;3.13;;;;;;;;;;12976508;19;20801;-66
2023/05/05 01:11:48;;;;;;;7.53;3.53;;;;;;;;;;12979197;19;20018;-65
2023/05/05 01:16:22;;;;;;;5.75;3.30;;;;;;;;;;12978274;19;20018;-66
2023/05/05 01:20:52;;;;;;;3.80;2.65;;;;;;;;;;12976443;19;20011;-65
2023/05/05 01:25:30;;;;;;;4.55;3.00;;;;;;;;;;12977848;19;20034;-65
2023/05/05 01:30:07;;;;;;;;;;;;;;;;;;12977635;19;20019;-66
2023/05/05 01:34:33;;;;;;;7.68;2.85;;;;;;;;;;12976404;19;19923;-66
2023/05/05 01:38:58;;;;;;;4.63;2.63;;;;;;;;;;12975932;19;20376;-65
2023/05/05 01:43:19;;;;;;;3.72;2.30;;;;;;;;;;12974116;19;20018;-65
2023/05/05 01:47:38;;;;;;;6.15;2.72;;;;;;;;;;12975808;19;20019;-66
2023/05/05 01:51:57;;;;;;;5.90;2.88;;;;;;;;;;12974937;19;20021;-65
2023/05/05 01:56:16;;;;;;;5.57;3.78;;;;;;;;;;12974735;19;20018;-66
2023/05/05 02:00:34;;;;;;;5.20;3.03;;;;;;;;;;12975146;19;20022;-67
2023/05/05 02:04:54;;;;;;;5.70;2.95;;;;;;;;;;12975245;19;20871;-65
2023/05/05 02:09:13;;;;;;;3.95;2.67;;;;;;;;;;12973935;19;20022;-65
2023/05/05 02:13:31;;;;;;;7.05;3.15;;;;;;;;;;12974517;19;20015;-65
2023/05/05 02:17:51;;;;;;;;;;;;;;;;;;12984962;19;20022;-66
2023/05/05 02:22:11;;;;;;;5.68;2.72;;;;;;;;;;12984846;19;19922;-65
2023/05/05 02:26:31;;;;;;;5.65;3.05;;;;;;;;;;12987322;19;20014;-65
2023/05/05 02:30:57;;;;;;;6.38;2.60;;;;;;;;;;12986737;19;20031;-65
2023/05/05 02:35:20;;;;;;;3.47;2.25;;;;;;;;;;12986468;19;20019;-65
2023/05/05 02:39:46;;;;;;;5.05;2.40;;;;;;;;;;12987944;19;20029;-65
2023/05/05 02:44:05;;;;;;;6.53;2.58;;;;;;;;;;12983624;19;20014;-65
2023/05/05 02:48:23;;;;;;;7.45;2.92;;;;;;;;;;12985770;19;20026;-65
2023/05/05 02:52:41;;;;;;;5.00;2.70;;;;;;;;;;12984913;19;20010;-66
2023/05/05 02:56:59;;;;;;;3.83;2.60;;;;;;;;;;12986627;19;20015;-66
2023/05/05 03:01:49;;;;;;;6.40;2.80;;;;;;;;;;12984556;19;20622;-67
2023/05/05 03:06:16;;;;;;;6.68;3.30;;;;;;;;;;12983887;19;20428;-65
2023/05/05 03:10:46;;;;;;;4.60;2.88;;;;;;;;;;12984130;19;20025;-66
2023/05/05 03:15:07;;;;;;;6.50;2.70;;;;;;;;;;12985586;19;20017;-66
2023/05/05 03:19:26;;;;;;;5.38;3.17;;;;;;;;;;12985674;19;20015;-66
2023/05/05 03:23:44;;;;;;;3.40;2.50;;;;;;;;;;12982871;19;20018;-66
2023/05/05 03:28:03;;;;;;;3.90;2.70;;;;;;;;;;12982756;19;20007;-66
2023/05/05 03:32:22;;;;;;;11.05;3.70;;;;;;;;;;12984838;19;20892;-66
2023/05/05 03:36:40;;;;;;;8.93;3.08;;;;;;;;;;12984540;19;20014;-66
2023/05/05 03:41:05;;;;;;;15.20;3.03;;;;;;;;;;12983417;19;20035;-66
2023/05/05 03:45:22;;;;;;;5.38;3.35;;;;;;;;;;12983056;19;20809;-67
2023/05/05 03:49:41;;;;;;;6.18;2.67;;;;;;;;;;12983588;19;20058;-67
2023/05/05 03:53:58;;;;;;;4.88;2.50;;;;;;;;;;12982600;19;20040;-65
2023/05/05 03:58:16;;;;;;;4.03;2.67;;;;;;;;;;12982780;19;20010;-65
2023/05/05 04:02:34;;;;;;;4.40;2.85;;;;;;;;;;12982479;19;20010;-65
2023/05/05 04:06:52;;;;;;;3.53;2.47;;;;;;;;;;12981780;19;20883;-65
2023/05/05 04:11:10;;;;;;;4.72;2.72;;;;;;;;;;12982149;19;20011;-67
2023/05/05 04:15:28;;;;;;;3.70;2.30;;;;;;;;;;12983364;19;20034;-65
2023/05/05 04:19:45;;;;;;;4.30;2.70;;;;;;;;;;12982636;19;20021;-66
2023/05/05 04:24:03;;;;;;;7.72;3.22;;;;;;;;;;12979787;19;20626;-66
2023/05/05 04:28:21;;;;;;;5.78;2.92;;;;;;;;;;12981636;19;20030;-66
2023/05/05 04:32:39;;;;;;;5.07;3.22;;;;;;;;;;12980796;19;20015;-65
2023/05/05 04:36:57;;;;;;;4.57;2.80;;;;;;;;;;12980459;19;20018;-65
2023/05/05 04:41:15;;;;;;;4.10;2.72;;;;;;;;;;12979939;19;20026;-66
2023/05/05 04:45:33;;;;;;;5.35;3.22;;;;;;;;;;12980285;19;20354;-66
2023/05/05 04:49:52;;;;;;;5.10;3.15;;;;;;;;;;12980451;19;20730;-67
2023/05/05 04:54:10;;;;;;;3.97;2.72;;;;;;;;;;12979586;19;20688;-66
2023/05/05 04:58:28;;;;;;;4.93;2.92;;;;;;;;;;12980340;19;20364;-66
2023/05/05 05:02:46;;;;;;;;;;;;;;;;;;12980694;19;20042;-66
2023/05/05 05:07:04;;;;;;;5.60;2.42;;;;;;;;;;12978444;19;20311;-66
2023/05/05 05:11:22;;;;;;;9.18;3.22;;;;;;;;;;12979391;19;20014;-67
2023/05/05 05:15:40;;;;;;;4.13;2.28;;;;;;;;;;12979398;19;20018;-65
2023/05/05 05:20:00;;;;;;;;;;;;;;;;;;12977181;19;20041;-66
2023/05/05 05:24:19;;;;;;;3.78;2.10;;;;;;;;;;12977991;19;19915;-67
2023/05/05 05:28:36;;;;;;;4.38;1.95;;;;;;;;;;12978036;19;20014;-67
2023/05/05 05:32:54;;;;;;;3.45;2.30;;;;;;;;;;12977821;19;20009;-66
2023/05/05 05:37:12;;;;;;;4.05;1.92;;;;;;;;;;12977053;19;20405;-65
2023/05/05 05:41:30;;;;;;;4.65;2.00;;;;;;;;;;12978140;19;20021;-68
2023/05/05 05:45:47;;;;;;;2.60;1.90;;;;;;;;;;12977617;19;20002;-65
2023/05/05 05:50:06;;;;;;;4.53;1.98;;;;;;;;;;12990203;19;20339;-66
2023/05/05 05:54:24;;;;;;;3.38;1.98;;;;;;;;;;13002358;19;20094;-65
2023/05/05 05:58:42;;;;;;;3.22;1.90;;;;;;;;;;13001811;19;20006;-66
2023/05/05 06:03:00;;;;;;;4.32;2.22;;;;;;;;;;13001348;19;20007;-66
2023/05/05 06:07:18;;;;;;;3.30;2.00;;;;;;;;;;12999905;19;20015;-65
2023/05/05 06:11:36;;;;;;;3.17;2.08;;;;;;;;;;13001108;19;20013;-65
2023/05/05 06:15:54;;;;;;;5.20;2.53;;;;;;;;;;13000146;19;20104;-65
2023/05/05 06:20:12;;;;;;;3.88;2.03;;;;;;;;;;12999734;19;20014;-65
2023/05/05 06:24:30;;;;;;;3.92;1.67;;;;;;;;;;12998087;19;20010;-66
2023/05/05 06:28:48;;;;;;;3.03;1.83;;;;;;;;;;13000036;19;20011;-65
2023/05/05 06:33:06;;;;;;;3.22;1.60;;;;;;;;;;12998660;19;20006;-65
2023/05/05 06:37:24;;;;;;;3.65;1.77;;;;;;;;;;13000083;19;20473;-65
2023/05/05 06:41:42;;;;;;;1.50;1.17;;;;;;;;;;12998451;19;20010;-65
2023/05/05 06:46:00;;;;;;;3.53;1.52;;;;;;;;;;12998514;19;20037;-65
2023/05/05 06:50:18;;;;;;;2.50;1.73;;;;;;;;;;12998098;19;20006;-65
2023/05/05 06:54:36;;;;;;;12.95;2.75;;;;;;;;;;12998666;19;20057;-65
2023/05/05 06:58:54;;;;;;;3.25;1.75;;;;;;;;;;12998439;19;20009;-65
2023/05/05 07:03:11;;;;;;;3.28;1.90;;;;;;;;;;13001667;19;20006;-67
2023/05/05 07:07:31;;;;;;;2.20;1.58;;;;;;;;;;13010477;19;20011;-67
2023/05/05 07:11:48;;;;;;;7.93;1.70;;;;;;;;;;13009950;19;19998;-65
2023/05/05 07:16:06;;;;;;;3.00;1.90;;;;;;;;;;13009512;19;20106;-65
2023/05/05 07:20:24;;;;;;;4.80;1.45;;;;;;;;;;13010223;19;20017;-65
2023/05/05 07:24:42;;;;;;;1.42;1.02;;;;;;;;;;13008891;19;20312;-65
2023/05/05 07:29:01;;;;;;;5.07;1.73;;;;;;;;;;13009634;19;20011;-65
2023/05/05 07:33:19;;;;;;;3.88;1.80;;;;;;;;;;13008937;19;20053;-66
2023/05/05 07:37:37;;;;;;;2.20;1.45;;;;;;;;;;13009155;19;19998;-64
2023/05/05 07:41:55;;;;;;;5.40;1.70;;;;;;;;;;13007839;19;20010;-64
2023/05/05 07:46:13;;;;;;;2.65;0.95;;;;;;;;;;13005645;19;20476;-64
2023/05/05 07:50:31;;;;;;;1.98;1.23;;;;;;;;;;13008545;19;20461;-65
2023/05/05 07:54:49;;;;;;;2.03;1.30;;;;;;;;;;13008293;19;20010;-62
2023/05/05 07:59:06;;;;;;;2.60;1.20;;;;;;;;;;13007520;19;20003;-62
2023/05/05 08:03:24;;;;;;;3.60;1.33;;;;;;;;;;13007452;19;20315;-62
2023/05/05 08:07:42;;;;;;;2.30;1.23;;;;;;;;;;13006918;19;20022;-62
2023/05/05 08:12:01;;;;;;;2.00;1.10;;;;;;;;;;13007388;19;20007;-63
2023/05/05 08:16:19;;;;;;;2.95;1.13;;;;;;;;;;13006427;19;20026;-63
2023/05/05 08:20:37;;;;;;;3.33;1.50;;;;;;;;;;13007013;19;20006;-62
2023/05/05 08:24:55;;;;;;;4.00;1.23;;;;;;;;;;13006326;19;20015;-62
2023/05/05 08:29:12;;;;;;;1.42;0.93;;;;;;;;;;13006268;19;20017;-62
2023/05/05 08:33:31;;;;;;;1.60;1.00;;;;;;;;;;13006909;19;20462;-63
2023/05/05 08:37:50;;;;;;;1.65;1.00;;;;;;;;;;13006388;19;20034;-62
2023/05/05 08:42:09;;;;;;;1.98;1.02;;;;;;;;;;13004846;19;20354;-63
2023/05/05 08:46:27;;;;;;;1.85;0.93;;;;;;;;;;13005721;19;20017;-63
2023/05/05 08:50:48;;;;;;;;;;;;;;;;;;13005571;19;20007;-63
2023/05/05 08:55:25;;;;;;;3.67;1.58;;;;;;;;;;13004846;19;19907;-63
2023/05/05 08:59:43;;;;;;;3.83;1.55;;;;;;;;;;13004390;19;20524;-63
2023/05/05 09:04:03;;;;;;;3.05;1.40;;;;;;;;;;13002194;19;20006;-65
2023/05/05 09:08:21;;;;;;;3.47;1.33;;;;;;;;;;13003685;19;20038;-63
2023/05/05 09:12:40;;;;;;;2.15;1.13;;;;;;;;;;13001585;19;20006;-64
2023/05/05 09:16:58;;;;;;;2.25;1.17;;;;;;;;;;13003546;19;20039;-63
2023/05/05 09:21:24;;;;;;;2.17;1.42;;;;;;;;;;13002673;19;20018;-63
2023/05/05 09:26:09;;;;;;;1.73;1.02;;;;;;;;;;13000357;19;20010;-62
2023/05/05 09:30:27;;;;;;;2.67;1.25;;;;;;;;;;13001652;19;20023;-63
2023/05/05 09:35:00;;;;;;;3.30;1.23;;;;;;;;;;13002579;19;20018;-62
2023/05/05 09:39:19;;;;;;;3.22;1.00;;;;;;;;;;13002806;19;20015;-63
2023/05/05 09:43:53;;;;;;;1.50;1.23;;;;;;;;;;13001793;19;20014;-62
2023/05/05 09:48:25;;;;;;;2.58;1.30;;;;;;;;;;13001468;19;20025;-63
2023/05/05 09:53:01;;;;;;;0.95;0.70;;;;;;;;;;13002233;19;20007;-62
2023/05/05 09:57:32;;;;;;;0.98;0.70;;;;;;;;;;13001674;19;20020;-63
2023/05/05 10:01:50;;;;;;;3.35;0.80;;;;;;;;;;13001548;19;20504;-63
2023/05/05 10:06:08;;;;;;;2.90;1.38;;;;;;;;;;13000346;19;20014;-63
2023/05/05 10:10:26;;;;;;;2.20;1.25;;;;;;;;;;13000830;19;20473;-64
2023/05/05 10:14:45;;;;;;;1.63;1.00;;;;;;;;;;13000656;19;20003;-62
2023/05/05 10:19:04;;;;;;;3.53;1.40;;;;;;;;;;12998749;19;20042;-63
2023/05/05 10:23:23;;;;;;;2.20;1.13;;;;;;;;;;12998886;19;20457;-63
2023/05/05 10:27:45;;;;;;;2.03;1.08;;;;;;;;;;12999955;19;20003;-62
2023/05/05 10:32:28;;;;;;;3.20;1.15;;;;;;;;;;12998268;19;20430;-63
2023/05/05 10:36:50;;;;;;;1.88;1.40;;;;;;;;;;13002486;19;20006;-63
2023/05/05 10:41:10;;;;;;;1.77;1.25;;;;;;;;;;13009477;19;20006;-63
2023/05/05 10:45:28;;;;;;;2.70;1.30;;;;;;;;;;13010618;19;20007;-63
2023/05/05 10:49:51;;;;;;;4.30;1.58;;;;;;;;;;13011879;19;20350;-63
2023/05/05 10:54:33;;;;;;;3.03;1.25;;;;;;;;;;13011534;19;20022;-63
2023/05/05 10:58:54;;;;;;;2.20;1.30;;;;;;;;;;13011911;19;20019;-63
2023/05/05 11:03:17;;;;;;;1.40;1.17;;;;;;;;;;13011358;19;20408;-63
2023/05/05 11:07:38;;;;;;;2.60;1.60;;;;;;;;;;13010665;19;19998;-64
2023/05/05 11:12:05;;;;;;;3.38;1.50;;;;;;;;;;13010776;19;20030;-63
2023/05/05 11:16:46;;;;;;;5.30;1.50;;;;;;;;;;13010703;19;20019;-63
2023/05/05 11:21:15;;;;;;;2.22;1.27;;;;;;;;;;13010127;19;20015;-63
2023/05/05 11:25:36;;;;;;;2.20;1.15;;;;;;;;;;13007698;19;20035;-64
2023/05/05 11:30:07;;;;;;;1.88;1.40;;;;;;;;;;13009699;19;20011;-64
2023/05/05 11:34:26;;;;;;;1.83;1.42;;;;;;;;;;13009520;19;20015;-64
2023/05/05 11:38:47;;;;;;;2.00;1.05;;;;;;;;;;13009182;19;20007;-63
2023/05/05 11:43:06;;;;;;;1.27;1.10;;;;;;;;;;13007658;19;20010;-63
2023/05/05 11:47:26;;;;;;;2.20;1.20;;;;;;;;;;13006978;19;20018;-64
2023/05/05 11:52:13;;;;;;;3.65;1.27;;;;;;;;;;13007340;19;20358;-63
2023/05/05 11:56:31;;;;;;;1.30;1.00;;;;;;;;;;13007140;19;20003;-63
2023/05/05 12:00:49;;;;;;;1.77;0.88;;;;;;;;;;13008228;19;20014;-63
2023/05/05 12:05:07;;;;;;;5.10;0.98;;;;;;;;;;13006865;19;20011;-64
2023/05/05 12:09:24;;;;;;;2.63;0.88;;;;;;;;;;13008071;19;20026;-64
2023/05/05 12:13:42;;;;;;;2.13;1.00;;;;;;;;;;13007274;19;20477;-64
2023/05/05 12:18:00;;;;;;;1.33;1.10;;;;;;;;;;13006901;19;20026;-64
2023/05/05 12:22:24;;;;;;;1.40;0.88;;;;;;;;;;13004893;19;20011;-64
2023/05/05 12:26:42;;;;;;;1.25;0.88;;;;;;;;;;13005645;19;19999;-64
2023/05/05 12:31:00;;;;;;;1.50;1.00;;;;;;;;;;13006140;19;20008;-64
2023/05/05 12:35:18;;;;;;;1.00;0.70;;;;;;;;;;13005610;19;20375;-64
2023/05/05 12:39:36;;;;;;;1.52;0.95;;;;;;;;;;13004210;19;20469;-63
2023/05/05 12:43:55;;;;;;;1.90;1.23;;;;;;;;;;13005067;19;20454;-64
2023/05/05 12:48:21;;;;;;;3.15;1.17;;;;;;;;;;13003919;19;20094;-63
2023/05/05 12:52:43;;;;;;;1.15;0.85;;;;;;;;;;13004486;19;20335;-63
2023/05/05 12:57:10;;;;;;;1.35;0.82;;;;;;;;;;13004224;19;20011;-63
2023/05/05 13:01:28;;;;;;;2.85;0.98;;;;;;;;;;13001718;19;20021;-64
2023/05/05 13:05:46;;;;;;;3.40;1.15;;;;;;;;;;13003683;19;20086;-64
2023/05/05 13:10:10;;;;;;;1.17;0.88;;;;;;;;;;13002479;19;20006;-63
2023/05/05 13:14:30;;;;;;;1.33;1.00;;;;;;;;;;13004326;19;20010;-63
2023/05/05 13:18:49;;;;;;;0.90;0.85;;;;;;;;;;13004394;19;20026;-63
2023/05/05 13:23:07;;;;;;;3.38;1.50;;;;;;;;;;13003045;19;20017;-63
2023/05/05 13:27:25;;;;;;;3.55;0.90;;;;;;;;;;13002791;19;20029;-63
2023/05/05 13:31:43;;;;;;;3.28;1.27;;;;;;;;;;13002931;19;20023;-63
2023/05/05 13:36:02;;;;;;;5.03;1.20;;;;;;;;;;13002087;19;20009;-63
2023/05/05 13:40:20;;;;;;;1.27;0.70;;;;;;;;;;13002351;19;20485;-63
2023/05/05 13:44:42;;;;;;;1.35;0.57;;;;;;;;;;13001701;19;19999;-63
2023/05/05 13:48:59;;;;;;;1.35;0.80;;;;;;;;;;13002359;19;20011;-63
2023/05/05 13:53:17;;;;;;;2.30;1.00;;;;;;;;;;13002209;19;20010;-63
2023/05/05 13:57:35;;;;;;;1.48;0.85;;;;;;;;;;13002294;19;20355;-63
2023/05/05 14:01:53;;;;;;;2.95;1.25;;;;;;;;;;13002095;19;20010;-63
2023/05/05 14:06:10;;;;;;;5.70;0.75;;;;;;;;;;13000781;19;20473;-63
2023/05/05 14:10:29;;;;;;;0.85;0.63;;;;;;;;;;13000990;19;20088;-63
2023/05/05 14:14:48;;;;;;;2.83;0.77;;;;;;;;;;13012638;19;20026;-63
2023/05/05 14:19:05;;;;;;;1.23;0.77;;;;;;;;;;13012958;19;20039;-63
2023/05/05 14:23:23;;;;;;;2.67;0.93;;;;;;;;;;13011100;19;20015;-62
2023/05/05 14:27:41;;;;;;;1.60;0.90;;;;;;;;;;13011604;19;20366;-63
2023/05/05 14:31:59;;;;;;;1.80;1.25;;;;;;;;;;13012659;19;20018;-62
2023/05/05 14:36:17;;;;;;;1.00;0.80;;;;;;;;;;13012579;19;20018;-63
2023/05/05 14:40:35;;;;;;;1.58;1.00;;;;;;;;;;13012888;19;20034;-63
2023/05/05 14:44:52;;;;;;;;;;;;;;;;;;13012915;19;20025;-63
2023/05/05 14:49:10;;;;;;;;;;;;;;;;;;13012050;19;19917;-63
2023/05/05 14:53:28;;;;;;;1.30;0.70;;;;;;;;;;13011969;19;20319;-62
2023/05/05 14:57:46;;;;;;;1.13;0.85;;;;;;;;;;13011920;19;20010;-63
2023/05/05 15:02:04;;;;;;;0.98;0.80;;;;;;;;;;13010872;19;20007;-63
2023/05/05 15:06:22;;;;;;;1.50;0.90;;;;;;;;;;13010403;19;20014;-63
2023/05/05 15:10:39;;;;;;;2.42;0.90;;;;;;;;;;13011266;19;20014;-62
2023/05/05 15:14:57;;;;;;;1.85;0.90;;;;;;;;;;13010620;19;20022;-62
2023/05/05 15:19:14;;;;;;;2.00;0.93;;;;;;;;;;13008756;19;20018;-62
2023/05/05 15:23:32;;;;;;;2.28;1.02;;;;;;;;;;13008393;19;20034;-63
2023/05/05 15:27:50;;;;;;;;;;;;;;;;;;13010819;19;20003;-62
2023/05/05 15:32:07;;;;;;;1.33;0.90;;;;;;;;;;13009583;19;19921;-62
2023/05/05 15:36:27;;;;;;;3.00;1.05;;;;;;;;;;13009982;19;20039;-61
2023/05/05 15:40:45;;;;;;;2.67;0.68;;;;;;;;;;13009515;19;20453;-61
2023/05/05 15:45:08;;;;;;;3.05;1.02;;;;;;;;;;13008710;19;20025;-61
2023/05/05 15:49:25;;;;;;;0.77;0.57;;;;;;;;;;13008847;19;20007;-61
2023/05/05 15:53:43;;;;;;;2.15;1.08;;;;;;;;;;13008575;19;20347;-61
2023/05/05 15:58:00;;;;;;;2.87;1.00;;;;;;;;;;13006325;19;20434;-61
2023/05/05 16:02:20;;;;;;;3.08;1.42;;;;;;;;;;13008356;19;20493;-61
2023/05/05 16:06:37;;;;;;;2.33;1.00;;;;;;;;;;13008271;19;20078;-61
2023/05/05 16:10:55;;;;;;;1.17;0.80;;;;;;;;;;13008675;19;20010;-61
2023/05/05 16:15:13;;;;;;;4.05;0.80;;;;;;;;;;13006914;19;20019;-61
2023/05/05 16:19:31;;;;;;;0.70;0.70;;;;;;;;;;13007453;19;20013;-61
2023/05/05 16:23:48;;;;;;;1.17;0.82;;;;;;;;;;13007186;19;20103;-62
2023/05/05 16:28:06;;;;;;;1.25;0.93;;;;;;;;;;13006349;19;20017;-62
2023/05/05 16:32:24;;;;;;;1.08;0.80;;;;;;;;;;13006488;19;20018;-62
2023/05/05 16:36:41;;;;;;;0.63;0.60;;;;;;;;;;13005812;19;20497;-62
2023/05/05 16:41:01;;;;;;;1.75;0.77;;;;;;;;;;13005524;19;20030;-62
2023/05/05 16:45:18;;;;;;;1.15;0.65;;;;;;;;;;13006003;19;20011;-62
2023/05/05 16:49:36;;;;;;;3.50;0.98;;;;;;;;;;13004065;19;20357;-62
2023/05/05 16:53:54;;;;;;;2.60;0.98;;;;;;;;;;13005052;19;20010;-62
2023/05/05 16:58:12;;;;;;;1.90;1.10;;;;;;;;;;13004426;19;20478;-62
2023/05/05 17:02:29;;;;;;;17.27;1.08;;;;;;;;;;13004493;19;20546;-62
2023/05/05 17:06:48;;;;;;;1.17;0.90;;;;;;;;;;13003846;19;20011;-62
2023/05/05 17:11:06;;;;;;;0.98;0.77;;;;;;;;;;13004072;19;20014;-62
2023/05/05 17:15:25;;;;;;;1.48;0.85;;;;;;;;;;13004489;19;20021;-62
2023/05/05 17:19:43;;;;;;;2.30;0.80;;;;;;;;;;13004308;19;20018;-62
2023/05/05 17:24:01;;;;;;;;;;;;;;;;;;13003605;19;20018;-64
2023/05/05 17:28:19;;;;;;;1.50;0.85;;;;;;;;;;13002375;19;19907;-62
2023/05/05 17:32:37;;;;;;;1.60;1.05;;;;;;;;;;13002953;19;20122;-63
2023/05/05 17:36:55;;;;;;;;;;;;;;;;;;13004219;19;20033;-62
2023/05/05 17:41:13;;;;;;;;;;;;;;;;;;13003015;19;20404;-63
2023/05/05 17:45:30;;;;;;;1.65;1.15;;;;;;;;;;13001513;19;19930;-61
2023/05/05 17:49:50;;;;;;;;;;;;;;;;;;13001898;19;20438;-61
2023/05/05 17:54:07;;;;;;;2.25;1.40;;;;;;;;;;13001308;19;19939;-62
2023/05/05 17:58:25;;;;;;;3.10;1.95;;;;;;;;;;13001564;19;20043;-62
2023/05/05 18:02:43;;;;;;;13.65;5.90;;;;;;;;;;13001539;19;20018;-62
2023/05/05 18:07:01;;;;;;;6.72;3.58;;;;;;;;;;13000439;19;20014;-63
2023/05/05 18:11:20;;;;;;;6.15;3.42;;;;;;;;;;13000977;19;20118;-62
2023/05/05 18:15:39;;;;;;;11.50;5.00;;;;;;;;;;13001281;19;20007;-62
2023/05/05 18:19:56;;;;;;;10.25;4.65;;;;;;;;;;13001530;19;20493;-61
2023/05/05 18:24:14;;;;;;;8.77;4.68;;;;;;;;;;12999764;19;20031;-61
2023/05/05 18:28:37;;;;;;;13.48;5.35;;;;;;;;;;13000252;19;20007;-61
2023/05/05 18:32:55;;;;;;;14.07;6.22;;;;;;;;;;13000373;19;20010;-61
2023/05/05 18:37:12;;;;;;;;;;;;;;;;;;12999769;19;20002;-61
2023/05/05 18:41:31;;;;;;;7.25;3.92;;;;;;;;;;12999172;19;20330;-62
2023/05/05 18:45:49;;;;;;;7.43;3.83;;;;;;;;;;12999044;19;20480;-61
2023/05/05 18:50:08;;;;;;;6.28;3.65;;;;;;;;;;12998236;19;20053;-61
2023/05/05 18:54:26;;;;;;;6.68;3.70;;;;;;;;;;12998716;19;20018;-65
2023/05/05 18:58:44;;;;;;;7.05;3.10;;;;;;;;;;13003723;19;20002;-64
2023/05/05 19:03:02;;;;;;;8.75;4.03;;;;;;;;;;13010566;19;20019;-64
2023/05/05 19:07:20;;;;;;;6.95;3.20;;;;;;;;;;13009928;19;20006;-64
2023/05/05 19:11:50;;;;;;;7.72;3.58;;;;;;;;;;13011198;19;20016;-66
2023/05/05 19:16:09;;;;;;;20.95;3.47;;;;;;;;;;13009422;19;20007;-66
2023/05/05 19:20:31;;;;;;;8.10;3.53;;;;;;;;;;13010052;19;20469;-66
2023/05/05 19:24:48;;;;;;;6.88;3.85;;;;;;;;;;13010209;19;20019;-66
2023/05/05 19:29:06;;;;;;;8.93;3.92;;;;;;;;;;13008576;19;20330;-67
2023/05/05 19:33:24;;;;;;;6.35;3.72;;;;;;;;;;13009720;19;20021;-65
2023/05/05 19:37:42;;;;;;;11.93;4.28;;;;;;;;;;13009089;19;20015;-65
2023/05/05 19:42:01;;;;;;;9.57;4.63;;;;;;;;;;13007802;19;20022;-65
2023/05/05 19:46:19;;;;;;;15.55;6.95;;;;;;;;;;13008154;19;20035;-65
2023/05/05 19:50:37;;;;;;;12.70;5.85;;;;;;;;;;13008156;19;20338;-65
2023/05/05 19:54:55;;;;;;;10.63;5.97;;;;;;;;;;13007037;19;20314;-65
2023/05/05 19:59:13;;;;;;;17.70;7.28;;;;;;;;;;13007413;19;20017;-66
2023/05/05 20:03:31;;;;;;;18.48;7.45;;;;;;;;;;13008076;19;20007;-65
2023/05/05 20:07:49;;;;;;;27.20;9.63;;;;;;;;;;13006960;19;20010;-66
2023/05/05 20:12:06;;;;;;;22.38;9.68;;;;;;;;;;13006293;19;20006;-65
2023/05/05 20:16:24;;;;;;;25.52;10.65;;;;;;;;;;13006660;19;20367;-64
2023/05/05 20:20:42;;;;;;;31.20;11.20;;;;;;;;;;13006783;19;20338;-65
2023/05/05 20:25:00;;;;;;;55.33;19.63;;;;;;;;;;13006480;19;20350;-67
2023/05/05 20:29:19;;;;;;;38.38;13.90;;;;;;;;;;13006160;19;20010;-65
2023/05/05 20:33:36;;;;;;;23.65;9.98;;;;;;;;;;13005295;19;20006;-66
2023/05/05 20:37:55;;;;;;;25.45;9.05;;;;;;;;;;13004113;19;20010;-65
2023/05/05 20:42:13;;;;;;;22.67;8.68;;;;;;;;;;13004813;19;20010;-64
2023/05/05 20:46:31;;;;;;;23.95;6.95;;;;;;;;;;13005579;19;20011;-65
2023/05/05 20:50:50;;;;;;;10.00;5.35;;;;;;;;;;13005032;19;20006;-65
2023/05/05 20:55:07;;;;;;;;;;;;;;;;;;13005021;19;20392;-65
2023/05/05 20:59:27;;;;;;;17.15;5.32;;;;;;;;;;13005169;19;19919;-65
2023/05/05 21:03:44;;;;;;;8.55;4.35;;;;;;;;;;13004785;19;20449;-65
2023/05/05 21:08:04;;;;;;;10.65;4.80;;;;;;;;;;13002951;19;20094;-65
2023/05/05 21:12:22;;;;;;;10.65;4.22;;;;;;;;;;13004533;19;20347;-66
2023/05/05 21:16:41;;;;;;;6.03;3.45;;;;;;;;;;13003924;19;20057;-65
2023/05/05 21:20:58;;;;;;;9.00;4.22;;;;;;;;;;13000954;19;20473;-65
2023/05/05 21:25:20;;;;;;;9.75;3.78;;;;;;;;;;13003685;19;20022;-65
2023/05/05 21:29:38;;;;;;;7.82;3.28;;;;;;;;;;13003491;19;20002;-65
2023/05/05 21:33:56;;;;;;;9.73;3.85;;;;;;;;;;13002471;19;20300;-65
2023/05/05 21:38:14;;;;;;;7.95;3.40;;;;;;;;;;13002502;19;20013;-65
2023/05/05 21:42:31;;;;;;;7.18;2.85;;;;;;;;;;13002333;19;20014;-65
2023/05/05 21:46:49;;;;;;;6.97;3.22;;;;;;;;;;13002527;19;20022;-65
2023/05/05 21:51:08;;;;;;;5.85;3.20;;;;;;;;;;13000724;19;20006;-65
2023/05/05 21:55:26;;;;;;;9.23;2.85;;;;;;;;;;13002042;19;20050;-65
2023/05/05 21:59:44;;;;;;;6.18;3.65;;;;;;;;;;13001911;19;20014;-65
2023/05/05 22:04:02;;;;;;;6.38;3.75;;;;;;;;;;13000151;19;20018;-64
2023/05/05 22:08:20;;;;;;;6.93;2.28;;;;;;;;;;13001071;19;20003;-66
2023/05/05 22:12:38;;;;;;;6.22;2.72;;;;;;;;;;13000966;19;20010;-65
2023/05/05 22:16:55;;;;;;;5.07;3.17;;;;;;;;;;13000465;19;19998;-65
2023/05/05 22:21:13;;;;;;;8.98;3.22;;;;;;;;;;12998502;19;20010;-64
2023/05/05 22:25:31;;;;;;;4.53;2.38;;;;;;;;;;13000105;19;20042;-63
2023/05/05 22:29:49;;;;;;;7.15;2.38;;;;;;;;;;12999589;19;20003;-64
2023/05/05 22:34:07;;;;;;;;;;;;;;;;;;13006474;19;20007;-64
2023/05/05 22:38:24;;;;;;;5.57;2.93;;;;;;;;;;13013094;19;19925;-63
2023/05/05 22:42:43;;;;;;;4.75;2.83;;;;;;;;;;13011899;19;20248;-63
2023/05/05 22:47:00;;;;;;;5.88;2.90;;;;;;;;;;13012571;19;20014;-64
2023/05/05 22:51:39;;;;;;;5.13;2.75;;;;;;;;;;13011989;19;20007;-64
2023/05/05 22:55:57;;;;;;;3.53;2.13;;;;;;;;;;13011935;19;20021;-64
2023/05/05 23:00:19;;;;;;;4.65;2.50;;;;;;;;;;13011018;19;20011;-64
2023/05/05 23:04:37;;;;;;;4.75;2.60;;;;;;;;;;13011925;19;20006;-65
2023/05/05 23:08:55;;;;;;;3.88;2.28;;;;;;;;;;13010154;19;20354;-65
2023/05/05 23:13:12;;;;;;;4.05;2.45;;;;;;;;;;13010151;19;20335;-64
2023/05/05 23:17:30;;;;;;;3.22;1.80;;;;;;;;;;13010465;19;20495;-64
2023/05/05 23:21:48;;;;;;;5.20;2.30;;;;;;;;;;13010278;19;20007;-65
2023/05/05 23:26:12;;;;;;;4.60;2.70;;;;;;;;;;13009452;19;20350;-66
2023/05/05 23:30:29;;;;;;;4.03;2.35;;;;;;;;;;13009081;19;20022;-64
2023/05/05 23:34:48;;;;;;;6.00;2.85;;;;;;;;;;13009992;19;19999;-63
2023/05/05 23:39:06;;;;;;;5.03;2.53;;;;;;;;;;13008225;19;20003;-64
2023/05/05 23:43:24;;;;;;;4.93;2.50;;;;;;;;;;13007805;19;20010;-64
2023/05/05 23:47:44;;;;;;;1.95;1.08;;;;;;;;;;13006974;19;20014;-64
2023/05/05 23:52:06;;;;;;;3.63;2.40;;;;;;;;;;13007775;19;20010;-65
2023/05/05 23:56:23;;;;;;;3.88;2.33;;;;;;;;;;13008566;19;20021;-64
